createdAt,value
2023-05-23T00:04:36.178Z,100
2023-05-23T00:15:25.905Z,100
2023-05-23T00:20:36.106Z,100
2023-05-23T00:25:36.123Z,100
2023-05-23T00:30:36.104Z,100
2023-05-23T00:35:36.168Z,100
2023-05-23T00:46:36.143Z,100
2023-05-23T00:52:25.803Z,100
2023-05-23T00:57:25.824Z,100
2023-05-23T01:02:36.251Z,100
2023-05-23T01:07:36.097Z,100
2023-05-23T01:23:36.124Z,100
2023-05-23T01:29:25.820Z,100
2023-05-23T01:34:36.108Z,100
2023-05-23T01:39:36.114Z,100
2023-05-23T01:44:36.117Z,100
2023-05-23T01:50:25.824Z,100
2023-05-23T01:55:25.847Z,100
2023-05-23T02:00:36.127Z,100
2023-05-23T02:06:25.814Z,100
2023-05-23T02:11:25.831Z,100
2023-05-23T02:16:25.883Z,100
2023-05-23T02:21:36.114Z,100
2023-05-23T02:26:36.121Z,100
2023-05-23T02:32:25.837Z,100
2023-05-23T02:37:25.835Z,100
2023-05-23T02:42:25.860Z,100
2023-05-23T02:47:25.905Z,100
2023-05-23T02:52:36.105Z,100
2023-05-23T02:57:36.142Z,100
2023-05-23T03:03:25.966Z,100
2023-05-23T03:08:36.210Z,100
2023-05-23T03:14:25.913Z,100
2023-05-23T03:19:26.026Z,100
2023-05-23T03:24:36.236Z,100
2023-05-23T03:30:25.917Z,100
2023-05-23T03:35:36.209Z,100
2023-05-23T03:41:25.943Z,100
2023-05-23T03:46:26.026Z,100
2023-05-23T03:51:36.217Z,100
2023-05-23T03:57:25.896Z,100
2023-05-23T04:02:25.970Z,100
2023-05-23T04:07:25.952Z,100
2023-05-23T04:12:36.207Z,100
2023-05-23T04:17:36.285Z,100
2023-05-23T04:23:25.883Z,100
2023-05-23T04:28:36.116Z,100
2023-05-23T04:33:36.139Z,100
2023-05-23T04:38:36.151Z,100
2023-05-23T04:43:36.155Z,100
2023-05-23T04:49:25.858Z,100
2023-05-23T04:54:25.879Z,100
2023-05-23T04:59:36.180Z,100
2023-05-23T05:05:25.878Z,100
2023-05-23T05:10:36.168Z,100
2023-05-23T05:15:36.186Z,100
2023-05-23T05:26:25.877Z,100
2023-05-23T05:31:36.253Z,100
2023-05-23T05:36:36.171Z,100
2023-05-23T05:42:25.889Z,100
2023-05-23T05:47:36.204Z,100
2023-05-23T05:53:25.890Z,100
2023-05-23T05:58:25.896Z,100
2023-05-23T06:03:26.150Z,100
2023-05-23T06:08:36.186Z,100
2023-05-23T06:14:25.879Z,100
2023-05-23T06:19:25.925Z,100
2023-05-23T06:24:25.897Z,100
2023-05-23T06:29:36.143Z,100
2023-05-23T06:34:36.138Z,100
2023-05-23T06:39:36.198Z,100
2023-05-23T06:50:25.935Z,100
2023-05-23T06:55:36.168Z,100
2023-05-23T07:00:36.197Z,100
2023-05-23T07:05:37.356Z,100
2023-05-23T07:11:25.903Z,100
2023-05-23T07:16:36.220Z,100
2023-05-23T07:22:26.079Z,100
2023-05-23T07:27:25.897Z,100
2023-05-23T07:32:36.256Z,100
2023-05-23T07:38:25.907Z,100
2023-05-23T07:43:36.185Z,100
2023-05-23T07:48:36.185Z,100
2023-05-23T07:54:25.914Z,100
2023-05-23T07:59:25.917Z,100
2023-05-23T08:04:25.951Z,100
2023-05-23T08:09:36.195Z,100
2023-05-23T08:15:25.910Z,100
2023-05-23T08:20:25.956Z,100
2023-05-23T08:25:36.202Z,100
2023-05-23T08:31:25.948Z,100
2023-05-23T08:42:25.985Z,100
2023-05-23T08:47:36.201Z,100
2023-05-23T08:58:25.927Z,100
2023-05-23T09:03:36.199Z,100
2023-05-23T09:09:25.916Z,100
2023-05-23T09:14:36.243Z,100
2023-05-23T09:20:25.934Z,100
2023-05-23T09:25:25.926Z,100
2023-05-23T09:30:25.935Z,100
2023-05-23T09:35:36.191Z,100
2023-05-23T09:40:36.209Z,100
2023-05-23T09:46:25.981Z,100
2023-05-23T10:02:25.972Z,100
2023-05-23T10:07:36.224Z,100
2023-05-23T10:13:25.984Z,100
2023-05-23T10:18:36.218Z,98.5
2023-05-23T10:24:25.929Z,94.9
2023-05-23T10:29:36.222Z,100
2023-05-23T10:35:25.938Z,100
2023-05-23T10:40:36.224Z,100
2023-05-23T10:46:25.980Z,100
2023-05-23T10:51:25.953Z,100
2023-05-23T10:56:36.212Z,100
2023-05-23T11:02:25.958Z,100
2023-05-23T11:07:36.269Z,100
2023-05-23T11:13:25.933Z,100
2023-05-23T11:23:36.241Z,100
2023-05-23T11:29:25.954Z,100
2023-05-23T11:34:26.014Z,88.3
2023-05-23T11:39:36.228Z,83.9
2023-05-23T11:45:25.959Z,82.1
2023-05-23T11:50:25.955Z,82.2
2023-05-23T11:55:36.253Z,83.7
2023-05-23T12:01:26.010Z,83.2
2023-05-23T12:06:25.991Z,81.8
2023-05-23T12:11:25.972Z,78.3
2023-05-23T12:21:36.249Z,83.6
2023-05-23T12:27:25.957Z,85
2023-05-23T12:32:26.051Z,89
2023-05-23T12:37:36.227Z,88.1
2023-05-23T12:43:25.986Z,82.7
2023-05-23T12:48:26.047Z,80.3
2023-05-23T12:53:36.263Z,83.9
2023-05-23T12:59:25.943Z,82
2023-05-23T13:04:26.045Z,81.1
2023-05-23T13:14:36.290Z,74.5
2023-05-23T13:20:25.982Z,74.8
2023-05-23T13:25:36.268Z,75.6
2023-05-23T13:30:36.254Z,73.4
2023-05-23T13:36:25.975Z,73.9
2023-05-23T13:41:36.240Z,75.6
2023-05-23T13:47:26.000Z,79.6
2023-05-23T13:52:25.999Z,75.9
2023-05-23T13:57:36.241Z,76.7
2023-05-23T14:02:36.409Z,73.2
2023-05-23T14:07:36.286Z,78.2
2023-05-23T14:18:25.993Z,72.4
2023-05-23T14:23:25.978Z,71.3
2023-05-23T14:28:25.991Z,62.4
2023-05-23T14:33:26.063Z,63.6
2023-05-23T14:38:36.277Z,70.2
2023-05-23T14:44:26.059Z,68.9
2023-05-23T14:49:26.024Z,66.4
2023-05-23T15:00:25.965Z,67.9
2023-05-23T15:05:26.056Z,63.2
2023-05-23T15:10:36.303Z,64.4
2023-05-23T15:15:36.276Z,63.1
2023-05-23T15:20:36.322Z,66.1
2023-05-23T15:25:48.849Z,65.3
2023-05-23T15:31:26.050Z,61
2023-05-23T15:36:26.024Z,66.2
2023-05-23T15:41:36.260Z,64.5
2023-05-23T15:46:36.328Z,62.5
2023-05-23T15:52:25.996Z,64.7
2023-05-23T15:57:36.268Z,61
2023-05-23T16:02:36.338Z,62.3
2023-05-23T16:07:36.313Z,60.6
2023-05-23T16:12:36.311Z,61.5
2023-05-23T16:18:26.063Z,62.5
2023-05-23T16:23:26.037Z,61.9
2023-05-23T16:28:36.278Z,59.6
2023-05-23T16:33:36.298Z,62.1
2023-05-23T16:38:36.290Z,63.8
2023-05-23T16:43:36.311Z,65.2
2023-05-23T16:49:26.047Z,62.3
2023-05-23T16:54:36.308Z,57.8
2023-05-23T16:59:36.303Z,59.5
2023-05-23T17:04:36.341Z,57.8
2023-05-23T17:10:26.011Z,66.5
2023-05-23T17:15:26.031Z,67.7
2023-05-23T17:20:36.324Z,62.9
2023-05-23T17:25:36.325Z,62.9
2023-05-23T17:31:27.592Z,64.4
2023-05-23T17:36:36.306Z,66.4
2023-05-23T17:41:36.329Z,66.1
2023-05-23T17:46:36.355Z,60.8
2023-05-23T17:52:26.056Z,64.5
2023-05-23T17:57:36.317Z,64
2023-05-23T18:02:36.347Z,62.1
2023-05-23T18:08:26.033Z,63.8
2023-05-23T18:13:36.341Z,60.3
2023-05-23T18:18:36.329Z,63.3
2023-05-23T18:23:36.340Z,65.3
2023-05-23T18:29:26.073Z,66.1
2023-05-23T18:34:36.348Z,69
2023-05-23T18:40:26.053Z,67.7
2023-05-23T18:45:36.350Z,67.8
2023-05-23T18:51:26.072Z,71.5
2023-05-23T18:56:36.334Z,72
2023-05-23T19:01:36.398Z,70.9
2023-05-23T19:07:26.072Z,74.8
2023-05-23T19:12:36.329Z,74.5
2023-05-23T19:17:36.645Z,76.2
2023-05-23T19:22:50.243Z,77.7
2023-05-23T19:27:36.359Z,78.2
2023-05-23T19:38:26.116Z,79.5
2023-05-23T19:43:36.326Z,76.6
2023-05-23T19:48:36.338Z,74.4
2023-05-23T19:54:26.079Z,78.5
2023-05-23T19:59:36.313Z,78
2023-05-23T20:04:36.330Z,75.6
2023-05-23T20:09:36.327Z,80.9
2023-05-23T20:14:36.364Z,79.2
2023-05-23T20:19:36.411Z,74.8
2023-05-23T20:25:26.062Z,74.9
2023-05-23T20:30:36.382Z,77.9
2023-05-23T20:36:26.048Z,76.6
2023-05-23T20:41:36.362Z,76.5
2023-05-23T20:46:36.414Z,77.2
2023-05-23T20:52:26.046Z,78.6
2023-05-23T20:57:26.072Z,80.9
2023-05-23T21:02:26.128Z,82.4
2023-05-23T21:07:36.310Z,83.4
2023-05-23T21:12:36.348Z,84.1
2023-05-23T21:18:26.095Z,85
2023-05-23T21:23:26.092Z,84.1
2023-05-23T21:28:26.114Z,85.7
2023-05-23T21:33:36.360Z,85.7
2023-05-23T21:39:28.840Z,82.9
2023-05-23T21:44:26.141Z,84.9
2023-05-23T21:49:36.356Z,85.8
2023-05-23T21:54:36.344Z,88.4
2023-05-23T22:00:26.086Z,86
2023-05-23T22:05:26.118Z,86.8
2023-05-23T22:10:36.343Z,87.5
2023-05-23T22:15:36.353Z,84.9
2023-05-23T22:21:26.114Z,84.9
2023-05-23T22:26:36.388Z,90.3
2023-05-23T22:32:26.135Z,87.9
2023-05-23T22:37:36.384Z,89.1
2023-05-23T22:43:26.106Z,90.7
2023-05-23T22:48:36.392Z,91.9
2023-05-23T22:53:36.443Z,87.2
2023-05-23T22:59:26.061Z,91.2
2023-05-23T23:04:26.111Z,91.6
2023-05-23T23:09:36.388Z,94.6
2023-05-23T23:15:26.074Z,92.6
2023-05-23T23:20:26.086Z,95.5
2023-05-23T23:25:26.093Z,91.5
2023-05-23T23:30:36.355Z,90.7
2023-05-23T23:36:26.113Z,93.4
2023-05-23T23:41:36.382Z,95.4
2023-05-23T23:47:26.141Z,92.7
2023-05-23T23:52:36.380Z,91.9
2023-05-23T23:58:26.109Z,91.1
